Airfield :
LOGIN :

Register | Disclaimer

   EN    FR    IT 

 










Legend :    VFR   Marginal VFR   IFR   Intensive IFR   Very Intensive IFR
Visi :
Ceiling :
>= 8 km
>= 3000ft
5 to 8 km
1000 to 3000 ft
1500m to 5 km
500 to 1000 ft
800 to 1500m
200 to 500 ft
< 800m
< 200 ft
Symbols :   Thunderstorms  Fog  Heavy snow  Heavy precipitations  Wind > 20 kt
SIGMETs :     Misc.  Thunderstorms  Icing  Turbulence  Mountain Waves  Volcanic Ashes






- Airport Elevation : 162 ft
- IATA code : BOD


LFBD - Bordeaux / Merignac

CURRENT METAR :
  • 011800Z AUTO 12003KT CAVOK 22/17 Q1013 TEMPO VRB15G25KT 2000 TSRA BKN040CB

EXPIRED METARs :
  • 011730Z AUTO 15007KT 9999 FEW038/// BKN210/// ///TCU 22/16 Q1013 TEMPO VRB15G25KT 2000 TSRA BKN040CB
  • 011700Z AUTO 14007KT 9999 -RA FEW010/// SCT045/// BKN058/// ///CB 23/16 Q1013 TEMPO VRB15G25KT 2000 TSRA
  • 011630Z AUTO 15010KT 9999 FEW044/// SCT052/// BKN068/// //////CB 24/15 Q1013 TEMPO VRB15G25KT 2000 TSRA
  • 011600Z AUTO 09009KT 040V120 9999 ///CB 25/16 Q1013 TEMPO VRB15G25KT 2000 TSRA

TAF TAF LFBD
Valid from the 01 at 18:00 until the 03 at 00:00 UTC


011700Z 0118/0224 09007KT CAVOK TX31/0214Z TN15/0205Z
PROB30
TEMPO 0118/0120 VRB15G25KT 2000 TSRA BKN040CB
PROB30
TEMPO 0214/0218 VRB15G25KT 2000 TSRA BKN040CB
ATIS : +33 5 57 92 81 04



MET'MAP, your aeronautical weather chart ! - Copyright ORBIFLY December 2007 - Disclaimer

ORBIFLY MET'MAP TEAM :

Programming & Development : Alexandra Zaïnal
Original concept : Baudouin d'Aumeries
Technical & hardware support : Manuel Goepfert
Assistance : Marc-Olivier Méhu




SOURCES & CREDITS :

   NOAA